createdAt,value
2018-12-26T00:00:08.039Z,101808.03
2018-12-26T00:02:37.635Z,101806.02
2018-12-26T00:05:06.862Z,101804.87
2018-12-26T00:07:36.900Z,101800.46
2018-12-26T00:10:06.480Z,101795.95
2018-12-26T00:12:36.312Z,101795.95
2018-12-26T00:15:05.905Z,101786.97
2018-12-26T00:17:35.402Z,101784.59
2018-12-26T00:20:05.146Z,101791.12
2018-12-26T00:22:35.826Z,101784.09
2018-12-26T00:25:05.626Z,101787.65
2018-12-26T00:27:35.255Z,101785.10
2018-12-26T00:30:04.852Z,101789.63
2018-12-26T00:32:34.331Z,101787.11
2018-12-26T00:35:03.809Z,101789.82
2018-12-26T00:37:33.339Z,101785.08
2018-12-26T00:40:02.845Z,101777.75
2018-12-26T00:42:32.337Z,101781.63
2018-12-26T00:45:01.793Z,101779.45
2018-12-26T00:47:31.549Z,101781.66
2018-12-26T00:50:00.771Z,101778.99
2018-12-26T00:52:29.993Z,101781.94
2018-12-26T00:54:59.471Z,101778.99
2018-12-26T00:57:28.715Z,101771.34
2018-12-26T00:59:58.184Z,101770.40
2018-12-26T01:02:27.741Z,101777.05
2018-12-26T01:04:57.497Z,101766.08
2018-12-26T01:07:27.652Z,101770.56
2018-12-26T01:09:57.119Z,101777.66
2018-12-26T01:12:26.311Z,101776.59
2018-12-26T01:14:55.789Z,101764.69
2018-12-26T01:17:25.247Z,101763.52
2018-12-26T01:19:55.091Z,101762.90
2018-12-26T01:22:25.451Z,101760.88
2018-12-26T01:24:54.958Z,101762.73
2018-12-26T01:27:24.152Z,101758.23
2018-12-26T01:29:53.651Z,101755.48
2018-12-26T01:32:23.104Z,101758.13
2018-12-26T01:34:52.588Z,101758.92
2018-12-26T01:37:22.056Z,101752.67
2018-12-26T01:39:51.925Z,101754.16
2018-12-26T01:42:21.115Z,101750.77
2018-12-26T01:44:50.697Z,101749.22
2018-12-26T01:47:20.157Z,101745.85
2018-12-26T01:49:49.633Z,101748.31
2018-12-26T01:52:19.102Z,101744.16
2018-12-26T01:54:48.702Z,101752.88
2018-12-26T01:57:18.270Z,101754.20
2018-12-26T01:59:47.758Z,101765.77
2018-12-26T02:02:17.344Z,101759.13
2018-12-26T02:04:46.575Z,101756.77
2018-12-26T02:07:16.359Z,101760.47
2018-12-26T02:09:46.121Z,101757.28
2018-12-26T02:12:16.413Z,101754.54
2018-12-26T02:14:45.886Z,101752.42
2018-12-26T02:17:15.363Z,101751.63
2018-12-26T02:19:44.941Z,101750.92
2018-12-26T02:22:14.169Z,101743.69
2018-12-26T02:24:43.683Z,101735.46
2018-12-26T02:27:13.535Z,101735.37
2018-12-26T02:29:43.012Z,101737.02
2018-12-26T02:32:12.595Z,101739.39
2018-12-26T02:34:42.340Z,101739.13
2018-12-26T02:37:12.409Z,101739.05
2018-12-26T02:39:41.609Z,101735.23
2018-12-26T02:44:46.095Z,101734.30
2018-12-26T02:47:15.880Z,101736.84
2018-12-26T02:49:45.693Z,101734.08
2018-12-26T02:52:14.898Z,101738.06
2018-12-26T02:54:44.091Z,101729.30
2018-12-26T02:57:13.830Z,101734.53
2018-12-26T02:59:43.413Z,101725.63
2018-12-26T03:02:12.920Z,101725.53
2018-12-26T03:04:43.099Z,101717.34
2018-12-26T03:07:12.728Z,101710.41
2018-12-26T03:09:42.231Z,101710.95
2018-12-26T03:12:11.718Z,101704.68
2018-12-26T03:14:41.156Z,101701.12
2018-12-26T03:17:10.656Z,101698.16
2018-12-26T03:19:40.434Z,101700.10
2018-12-26T03:22:09.642Z,101694.47
2018-12-26T03:24:39.373Z,101697.27
2018-12-26T03:27:08.620Z,101694.72
2018-12-26T03:29:38.090Z,101695.23
2018-12-26T03:32:07.333Z,101698.23
2018-12-26T03:34:36.511Z,101696.80
2018-12-26T03:37:06.552Z,101693.06
2018-12-26T03:39:36.004Z,101686.98
2018-12-26T03:42:05.337Z,101687.92
2018-12-26T03:45:13.915Z,101691.09
2018-12-26T03:48:22.521Z,101689.00
2018-12-26T03:50:52.297Z,101693.34
2018-12-26T03:53:21.885Z,101687.92
2018-12-26T03:55:51.433Z,101684.05
2018-12-26T03:58:20.926Z,101685.80
2018-12-26T04:00:50.136Z,101684.53
2018-12-26T04:03:19.952Z,101688.63
2018-12-26T04:05:49.147Z,101682.75
2018-12-26T04:08:19.638Z,101684.56
2018-12-26T04:13:57.785Z,101682.75
2018-12-26T04:16:26.981Z,101677.52
2018-12-26T04:18:56.477Z,101674.78
2018-12-26T04:21:26.147Z,101672.58
2018-12-26T04:23:55.723Z,101680.59
2018-12-26T04:26:25.476Z,101685.86
2018-12-26T04:28:54.969Z,101691.71
2018-12-26T04:31:24.151Z,101686.03
2018-12-26T04:33:53.377Z,101686.09
2018-12-26T04:36:23.011Z,101684.56
2018-12-26T04:38:52.793Z,101682.05
2018-12-26T04:41:22.658Z,101679.78
2018-12-26T04:43:52.114Z,101679.92
2018-12-26T04:46:21.886Z,101674.39
2018-12-26T04:48:51.359Z,101669.92
2018-12-26T04:51:20.816Z,101669.08
2018-12-26T04:53:50.284Z,101666.67
2018-12-26T04:56:19.771Z,101666.76
2018-12-26T04:58:49.273Z,101672.89
2018-12-26T05:01:19.009Z,101664.02
2018-12-26T05:03:48.792Z,101663.23
2018-12-26T05:06:18.269Z,101667.07
2018-12-26T05:08:48.059Z,101666.45
2018-12-26T05:11:17.642Z,101666.56
2018-12-26T05:13:47.125Z,101669.08
2018-12-26T05:16:16.612Z,101668.00
2018-12-26T05:18:45.826Z,101666.65
2018-12-26T05:21:15.022Z,101671.25
2018-12-26T05:23:44.238Z,101674.08
2018-12-26T05:26:13.444Z,101668.54
2018-12-26T05:28:42.673Z,101673.23
2018-12-26T05:31:11.850Z,101679.87
2018-12-26T05:33:41.073Z,101675.09
2018-12-26T05:36:10.265Z,101676.67
2018-12-26T05:38:39.473Z,101676.34
2018-12-26T05:41:08.661Z,101682.27
2018-12-26T05:43:37.885Z,101679.70
2018-12-26T05:46:07.376Z,101675.72
2018-12-26T05:48:36.586Z,101674.39
2018-12-26T05:51:06.101Z,101678.70
2018-12-26T05:53:35.318Z,101682.07
2018-12-26T05:56:04.509Z,101678.94
2018-12-26T05:58:33.714Z,101681.50
2018-12-26T06:01:02.912Z,101684.53
2018-12-26T06:03:32.117Z,101679.47
2018-12-26T06:06:01.323Z,101676.11
2018-12-26T06:08:30.733Z,101682.66
2018-12-26T06:10:59.919Z,101678.91
2018-12-26T06:13:29.183Z,101674.81
2018-12-26T06:15:58.407Z,101674.22
2018-12-26T06:18:27.625Z,101673.59
2018-12-26T06:20:56.845Z,101675.18
2018-12-26T06:23:26.068Z,101674.10
2018-12-26T06:25:55.293Z,101668.94
2018-12-26T06:28:24.509Z,101677.05
2018-12-26T06:30:53.711Z,101676.34
2018-12-26T06:33:23.224Z,101670.42
2018-12-26T06:35:52.435Z,101675.34
2018-12-26T06:38:21.642Z,101670.74
2018-12-26T06:40:50.835Z,101677.05
2018-12-26T06:43:20.313Z,101678.69
2018-12-26T06:45:49.498Z,101680.97
2018-12-26T06:48:18.710Z,101677.75
2018-12-26T06:50:47.916Z,101685.09
2018-12-26T06:53:17.154Z,101683.00
2018-12-26T06:55:46.365Z,101682.89
2018-12-26T06:58:15.583Z,101687.37
2018-12-26T07:00:44.767Z,101684.02
2018-12-26T07:03:13.977Z,101685.23
2018-12-26T07:05:43.164Z,101681.45
2018-12-26T07:08:12.387Z,101685.34
2018-12-26T07:10:41.568Z,101688.28
2018-12-26T07:13:10.805Z,101694.41
2018-12-26T07:15:39.985Z,101697.44
2018-12-26T07:18:09.207Z,101697.27
2018-12-26T07:20:38.423Z,101695.47
2018-12-26T07:23:07.641Z,101700.97
2018-12-26T07:25:36.890Z,101706.41
2018-12-26T07:28:09.299Z,101702.75
2018-12-26T07:30:56.092Z,101710.95
2018-12-26T07:33:25.306Z,101718.83
2018-12-26T07:36:13.493Z,101717.28
2018-12-26T07:38:42.711Z,101716.71
2018-12-26T07:41:11.902Z,101721.63
2018-12-26T07:43:41.104Z,101717.84
2018-12-26T07:46:10.299Z,101722.56
2018-12-26T07:48:39.521Z,101723.75
2018-12-26T07:51:08.718Z,101725.31
2018-12-26T07:53:37.978Z,101735.31
2018-12-26T07:56:07.191Z,101726.10
2018-12-26T08:01:33.157Z,101730.80
2018-12-26T08:04:02.374Z,101733.53
2018-12-26T08:06:31.563Z,101735.06
2018-12-26T08:09:00.768Z,101737.44
2018-12-26T08:11:30.233Z,101737.48
2018-12-26T08:13:59.448Z,101738.82
2018-12-26T08:16:28.649Z,101736.39
2018-12-26T08:18:57.850Z,101730.90
2018-12-26T08:21:27.064Z,101741.52
2018-12-26T08:23:56.539Z,101744.62
2018-12-26T08:26:25.750Z,101727.41
2018-12-26T08:28:54.957Z,101729.92
2018-12-26T08:34:12.909Z,101725.71
2018-12-26T08:36:42.095Z,101735.19
2018-12-26T08:39:11.588Z,101732.31
2018-12-26T08:41:40.803Z,101731.35
2018-12-26T08:44:10.013Z,101739.69
2018-12-26T08:46:39.500Z,101729.80
2018-12-26T08:49:08.735Z,101729.07
2018-12-26T08:51:37.926Z,101722.55
2018-12-26T08:54:07.151Z,101729.57
2018-12-26T08:56:36.348Z,101727.24
2018-12-26T08:59:05.558Z,101729.44
2018-12-26T09:01:35.009Z,101730.89
2018-12-26T09:04:04.251Z,101741.48
2018-12-26T09:06:33.437Z,101739.10
2018-12-26T09:14:12.268Z,101753.30
2018-12-26T09:16:41.479Z,101754.78
2018-12-26T09:19:10.698Z,101752.76
2018-12-26T09:21:39.906Z,101753.14
2018-12-26T09:24:09.121Z,101759.27
2018-12-26T09:26:39.843Z,101760.98
2018-12-26T09:29:09.070Z,101764.01
2018-12-26T09:31:38.266Z,101764.92
2018-12-26T09:34:07.987Z,101764.11
2018-12-26T09:36:37.486Z,101760.92
2018-12-26T09:39:08.054Z,101767.38
2018-12-26T09:41:37.271Z,101764.12
2018-12-26T09:44:06.453Z,101763.36
2018-12-26T09:46:36.086Z,101763.00
2018-12-26T09:49:05.285Z,101759.42
2018-12-26T09:51:34.511Z,101745.25
2018-12-26T09:54:03.698Z,101750.45
2018-12-26T09:56:32.916Z,101751.84
2018-12-26T09:59:02.112Z,101743.83
2018-12-26T10:01:31.354Z,101739.31
2018-12-26T10:04:00.547Z,101737.22
2018-12-26T10:06:29.762Z,101737.36
2018-12-26T10:08:59.217Z,101735.84
2018-12-26T10:11:28.699Z,101734.47
2018-12-26T10:13:57.893Z,101734.19
2018-12-26T10:16:27.150Z,101735.48
2018-12-26T10:18:56.343Z,101735.08
2018-12-26T10:21:25.563Z,101737.99
2018-12-26T10:24:13.778Z,101731.72
2018-12-26T10:26:43.288Z,101727.30
2018-12-26T10:29:12.746Z,101718.16
2018-12-26T10:31:42.228Z,101717.52
2018-12-26T10:34:11.427Z,101721.55
2018-12-26T10:36:40.642Z,101719.28
2018-12-26T10:39:09.837Z,101721.69
2018-12-26T10:41:39.078Z,101726.05
2018-12-26T10:44:08.259Z,101714.89
2018-12-26T10:46:37.463Z,101713.81
2018-12-26T10:49:06.653Z,101714.17
2018-12-26T10:51:35.860Z,101716.55
2018-12-26T10:54:05.045Z,101716.24
2018-12-26T10:56:34.245Z,101708.42
2018-12-26T10:59:09.967Z,101704.58
2018-12-26T11:01:34.964Z,101704.12
2018-12-26T11:04:04.161Z,101698.34
2018-12-26T11:06:33.487Z,101701.09
2018-12-26T11:09:02.933Z,101691.78
2018-12-26T11:11:32.413Z,101686.84
2018-12-26T11:14:01.623Z,101686.06
2018-12-26T11:16:30.964Z,101664.44
2018-12-26T11:19:00.590Z,101681.13
2018-12-26T11:21:30.046Z,101666.95
2018-12-26T11:23:59.252Z,101656.61
2018-12-26T11:26:28.585Z,101656.01
2018-12-26T11:28:58.025Z,101657.37
2018-12-26T11:31:27.211Z,101647.52
2018-12-26T11:33:56.806Z,101640.17
2018-12-26T11:36:26.000Z,101640.37
2018-12-26T11:38:55.322Z,101630.37
2018-12-26T11:41:24.525Z,101624.05
2018-12-26T11:43:53.949Z,101623.06
2018-12-26T11:46:23.155Z,101617.70
2018-12-26T11:48:52.670Z,101623.09
2018-12-26T11:51:22.227Z,101619.74
2018-12-26T11:53:51.693Z,101618.39
2018-12-26T11:56:20.884Z,101617.75
2018-12-26T11:58:50.103Z,101615.90
2018-12-26T12:01:19.285Z,101617.39
2018-12-26T12:03:48.503Z,101613.06
2018-12-26T12:06:17.699Z,101606.68
2018-12-26T12:08:47.208Z,101613.17
2018-12-26T12:11:16.402Z,101612.69
2018-12-26T12:13:45.884Z,101602.28
2018-12-26T12:16:15.074Z,101605.79
2018-12-26T12:18:44.368Z,101605.55
2018-12-26T12:21:13.804Z,101602.05
2018-12-26T12:23:43.295Z,101598.20
2018-12-26T12:26:12.526Z,101597.67
2018-12-26T12:28:41.725Z,101597.16
2018-12-26T12:31:11.453Z,101607.22
2018-12-26T12:33:41.004Z,101614.61
2018-12-26T12:36:12.973Z,101612.38
2018-12-26T12:38:42.112Z,101606.30
2018-12-26T12:41:11.314Z,101605.66
2018-12-26T12:43:40.500Z,101609.82
2018-12-26T12:46:09.804Z,101605.27
2018-12-26T12:48:38.985Z,101606.06
2018-12-26T12:51:08.186Z,101606.17
2018-12-26T12:53:37.382Z,101596.06
2018-12-26T12:56:11.754Z,101601.53
2018-12-26T12:58:37.700Z,101593.41
2018-12-26T13:01:07.167Z,101598.59
2018-12-26T13:03:36.621Z,101599.55
2018-12-26T13:06:05.806Z,101606.42
2018-12-26T13:08:34.990Z,101605.58
2018-12-26T13:11:04.576Z,101610.91
2018-12-26T13:13:33.867Z,101612.56
2018-12-26T13:16:03.094Z,101619.55
2018-12-26T13:18:32.287Z,101614.95
2018-12-26T13:21:01.488Z,101617.55
2018-12-26T13:23:30.925Z,101618.59
2018-12-26T13:26:00.419Z,101624.23
2018-12-26T13:28:29.606Z,101620.30
2018-12-26T13:31:04.983Z,101621.10
2018-12-26T13:36:21.022Z,101623.41
2018-12-26T13:38:50.200Z,101620.02
2018-12-26T13:41:19.411Z,101614.30
2018-12-26T13:43:48.596Z,101616.73
2018-12-26T13:46:17.803Z,101620.27
2018-12-26T13:48:46.984Z,101617.52
2018-12-26T13:51:16.475Z,101616.03
2018-12-26T13:53:45.652Z,101624.02
2018-12-26T13:56:14.866Z,101629.78
2018-12-26T13:58:44.050Z,101635.36
2018-12-26T14:01:13.249Z,101633.16
2018-12-26T14:03:42.698Z,101628.31
2018-12-26T14:06:11.906Z,101621.86
2018-12-26T14:08:41.094Z,101619.81
2018-12-26T14:11:10.334Z,101612.98
2018-12-26T14:13:39.509Z,101605.62
2018-12-26T14:16:08.736Z,101605.52
2018-12-26T14:18:38.243Z,101602.73
2018-12-26T14:21:07.469Z,101602.08
2018-12-26T14:23:36.936Z,101592.47
2018-12-26T14:26:06.419Z,101593.22
2018-12-26T14:28:35.627Z,101587.59
2018-12-26T14:31:04.838Z,101586.69
2018-12-26T14:33:34.069Z,101579.52
2018-12-26T14:36:03.518Z,101575.75
2018-12-26T14:38:32.758Z,101570.69
2018-12-26T14:41:02.245Z,101566.58
2018-12-26T14:43:31.494Z,101557.09
2018-12-26T14:46:00.698Z,101557.00
2018-12-26T14:48:29.924Z,101550.82
2018-12-26T14:50:59.118Z,101550.53
2018-12-26T14:53:28.339Z,101553.62
2018-12-26T14:55:57.518Z,101560.88
2018-12-26T14:58:26.842Z,101561.61
2018-12-26T15:00:56.286Z,101559.31
2018-12-26T15:03:25.529Z,101563.03
2018-12-26T15:05:54.993Z,101558.03
2018-12-26T15:08:24.184Z,101555.20
2018-12-26T15:10:53.636Z,101558.41
2018-12-26T15:13:22.829Z,101550.23
2018-12-26T15:15:52.022Z,101555.77
2018-12-26T15:18:21.271Z,101552.09
2018-12-26T15:20:50.491Z,101550.44
2018-12-26T15:23:19.813Z,101546.09
2018-12-26T15:25:49.031Z,101538.70
2018-12-26T15:28:18.227Z,101539.07
2018-12-26T15:30:47.402Z,101545.08
2018-12-26T15:33:16.607Z,101539.03
2018-12-26T15:35:45.791Z,101542.02
2018-12-26T15:38:15.261Z,101534.80
2018-12-26T15:40:44.455Z,101527.58
2018-12-26T15:43:13.681Z,101526.23
2018-12-26T15:45:42.879Z,101525.86
2018-12-26T15:48:12.110Z,101527.00
2018-12-26T15:50:41.558Z,101525.78
2018-12-26T15:53:10.776Z,101525.91
2018-12-26T15:55:39.985Z,101525.70
2018-12-26T15:58:09.224Z,101526.00
2018-12-26T16:00:38.420Z,101517.59
2018-12-26T16:03:07.621Z,101514.42
2018-12-26T16:05:37.146Z,101518.41
2018-12-26T16:08:06.360Z,101521.57
2018-12-26T16:10:35.570Z,101507.38
2018-12-26T16:13:05.384Z,101512.41
2018-12-26T16:15:34.599Z,101515.88
2018-12-26T16:18:03.789Z,101514.91
2018-12-26T16:20:33.341Z,101507.74
2018-12-26T16:23:02.562Z,101502.70
2018-12-26T16:25:31.764Z,101498.39
2018-12-26T16:28:01.022Z,101497.18
2018-12-26T16:30:30.219Z,101496.13
2018-12-26T16:32:59.413Z,101495.61
2018-12-26T16:35:29.172Z,101502.73
2018-12-26T16:38:01.599Z,101499.52
2018-12-26T16:40:29.383Z,101506.64
2018-12-26T16:42:58.574Z,101495.27
2018-12-26T16:45:27.780Z,101495.57
2018-12-26T16:47:56.973Z,101493.88
2018-12-26T16:50:45.259Z,101492.90
2018-12-26T16:53:14.451Z,101482.18
2018-12-26T16:56:02.595Z,101489.66
2018-12-26T16:58:31.801Z,101489.15
2018-12-26T17:01:01.309Z,101492.80
2018-12-26T17:03:32.782Z,101477.77
2018-12-26T17:06:02.011Z,101479.41
2018-12-26T17:08:31.202Z,101476.95
2018-12-26T17:11:00.410Z,101477.98
2018-12-26T17:13:29.624Z,101474.66
2018-12-26T17:15:58.871Z,101468.84
2018-12-26T17:18:28.079Z,101472.18
2018-12-26T17:20:57.296Z,101469.65
2018-12-26T17:23:26.525Z,101467.66
2018-12-26T17:25:55.737Z,101460.70
2018-12-26T17:28:24.961Z,101462.91
2018-12-26T17:30:54.228Z,101464.91
2018-12-26T17:33:23.688Z,101469.44
2018-12-26T17:35:53.184Z,101473.07
2018-12-26T17:38:22.372Z,101471.19
2018-12-26T17:40:58.813Z,101473.33
2018-12-26T17:43:27.994Z,101476.11
2018-12-26T17:45:57.209Z,101480.44
2018-12-26T17:48:26.402Z,101483.58
2018-12-26T17:50:55.719Z,101482.38
2018-12-26T17:54:02.951Z,101476.69
2018-12-26T17:57:10.211Z,101478.81
2018-12-26T18:00:04.560Z,101472.14
2018-12-26T18:02:40.696Z,101465.96
2018-12-26T18:05:09.884Z,101466.80
2018-12-26T18:07:39.106Z,101463.45
2018-12-26T18:10:09.724Z,101460.44
2018-12-26T18:12:38.956Z,101461.94
2018-12-26T18:15:10.718Z,101467.75
2018-12-26T18:17:40.054Z,101476.41
2018-12-26T18:20:10.753Z,101469.88
2018-12-26T18:22:40.002Z,101476.84
2018-12-26T18:25:09.307Z,101472.52
2018-12-26T18:27:38.812Z,101476.16
2018-12-26T18:30:11.698Z,101478.53
2018-12-26T18:32:41.042Z,101477.26
2018-12-26T18:35:11.189Z,101470.13
2018-12-26T18:37:40.674Z,101466.07
2018-12-26T18:40:09.917Z,101463.13
2018-12-26T18:42:39.428Z,101458.41
2018-12-26T18:45:09.449Z,101458.03
2018-12-26T18:47:39.205Z,101461.34
2018-12-26T18:50:10.710Z,101458.35
2018-12-26T18:52:40.174Z,101463.36
2018-12-26T18:55:09.798Z,101448.02
2018-12-26T18:57:38.992Z,101444.34
2018-12-26T19:00:11.434Z,101440.14
2018-12-26T19:02:40.943Z,101445.31
2018-12-26T19:05:11.454Z,101445.02
2018-12-26T19:07:41.221Z,101444.24
2018-12-26T19:10:11.407Z,101436.38
2018-12-26T19:12:40.977Z,101438.66
2018-12-26T19:15:10.464Z,101442.45
2018-12-26T19:17:39.666Z,101441.13
2018-12-26T19:20:10.592Z,101438.81
2018-12-26T19:22:39.791Z,101439.80
2018-12-26T19:25:09.020Z,101436.77
2018-12-26T19:27:38.509Z,101429.42
2018-12-26T19:30:11.125Z,101432.73
2018-12-26T19:32:40.596Z,101430.88
2018-12-26T19:35:28.892Z,101430.00
2018-12-26T19:37:58.346Z,101430.49
2018-12-26T19:40:27.566Z,101439.36
2018-12-26T19:42:57.039Z,101434.65
2018-12-26T19:45:26.547Z,101435.14
2018-12-26T19:47:56.081Z,101435.09
2018-12-26T19:50:25.616Z,101441.60
2018-12-26T19:52:55.109Z,101438.03
2018-12-26T19:55:24.866Z,101441.51
2018-12-26T19:57:54.099Z,101430.13
2018-12-26T20:00:42.675Z,101438.13
2018-12-26T20:03:11.864Z,101436.34
2018-12-26T20:08:15.575Z,101428.70
2018-12-26T20:10:44.821Z,101431.77
2018-12-26T20:13:14.053Z,101440.60
2018-12-26T20:15:43.575Z,101434.63
2018-12-26T20:18:12.777Z,101430.88
2018-12-26T20:20:42.057Z,101430.00
2018-12-26T20:23:11.651Z,101431.34
2018-12-26T20:25:41.211Z,101416.91
2018-12-26T20:28:10.452Z,101423.28
2018-12-26T20:30:39.763Z,101422.47
2018-12-26T20:33:09.088Z,101420.32
2018-12-26T20:35:38.391Z,101414.18
2018-12-26T20:38:07.613Z,101414.18
2018-12-26T20:40:36.884Z,101416.48
2018-12-26T20:43:06.096Z,101415.52
2018-12-26T20:45:35.357Z,101413.66
2018-12-26T20:48:04.931Z,101408.16
2018-12-26T20:50:34.209Z,101409.33
2018-12-26T20:53:03.395Z,101409.82
2018-12-26T20:55:32.683Z,101421.66
2018-12-26T20:58:01.967Z,101418.20
2018-12-26T21:00:31.365Z,101416.39
2018-12-26T21:03:00.941Z,101414.70
2018-12-26T21:05:31.606Z,101411.55
2018-12-26T21:08:01.208Z,101404.72
2018-12-26T21:10:30.490Z,101392.91
2018-12-26T21:12:59.758Z,101402.17
2018-12-26T21:15:29.235Z,101402.84
2018-12-26T21:18:18.283Z,101401.35
2018-12-26T21:20:49.485Z,101390.03
2018-12-26T21:23:18.511Z,101390.71
2018-12-26T21:25:48.423Z,101390.88
2018-12-26T21:28:17.663Z,101389.03
2018-12-26T21:30:47.430Z,101388.87
2018-12-26T21:33:17.052Z,101388.02
2018-12-26T21:36:05.317Z,101382.50
2018-12-26T21:38:34.549Z,101378.03
2018-12-26T21:41:03.737Z,101370.58
2018-12-26T21:43:33.270Z,101375.26
2018-12-26T21:46:02.599Z,101373.27
2018-12-26T21:48:32.335Z,101362.25
2018-12-26T21:51:01.529Z,101363.26
2018-12-26T21:53:31.015Z,101364.59
2018-12-26T21:56:00.210Z,101361.44
2018-12-26T21:58:29.459Z,101363.09
2018-12-26T22:00:59.373Z,101358.91
2018-12-26T22:03:28.531Z,101355.26
2018-12-26T22:05:58.610Z,101362.12
2018-12-26T22:08:27.846Z,101358.80
2018-12-26T22:10:57.055Z,101363.80
2018-12-26T22:13:26.280Z,101366.14
2018-12-26T22:15:55.469Z,101364.31
2018-12-26T22:18:24.695Z,101366.46
2018-12-26T22:20:53.925Z,101371.84
2018-12-26T22:23:42.342Z,101369.37
2018-12-26T22:26:11.525Z,101370.37
2018-12-26T22:28:40.773Z,101371.91
2018-12-26T22:31:09.970Z,101374.66
2018-12-26T22:33:39.584Z,101379.98
2018-12-26T22:36:08.739Z,101371.14
2018-12-26T22:38:56.950Z,101378.98
2018-12-26T22:41:26.143Z,101378.67
2018-12-26T22:46:30.263Z,101376.49
2018-12-26T22:48:59.496Z,101381.34
2018-12-26T22:51:28.751Z,101377.66
2018-12-26T22:53:57.970Z,101366.50
2018-12-26T22:56:27.165Z,101366.50
2018-12-26T22:58:56.755Z,101369.03
2018-12-26T23:01:26.018Z,101368.02
2018-12-26T23:03:55.276Z,101366.68
2018-12-26T23:06:24.466Z,101360.20
2018-12-26T23:08:53.689Z,101366.02
2018-12-26T23:11:22.886Z,101365.34
2018-12-26T23:13:52.375Z,101357.02
2018-12-26T23:16:21.711Z,101358.98
2018-12-26T23:18:50.926Z,101354.66
2018-12-26T23:21:20.116Z,101350.00
2018-12-26T23:23:49.697Z,101341.16
2018-12-26T23:26:19.219Z,101344.51
2018-12-26T23:28:48.538Z,101342.70
2018-12-26T23:31:17.667Z,101345.55
2018-12-26T23:33:46.885Z,101339.40
2018-12-26T23:36:16.366Z,101334.69
2018-12-26T23:38:45.918Z,101332.73
2018-12-26T23:41:15.130Z,101334.73
2018-12-26T23:43:44.388Z,101331.05
2018-12-26T23:46:13.586Z,101326.05
2018-12-26T23:48:43.115Z,101324.08
2018-12-26T23:51:12.310Z,101322.06
2018-12-26T23:53:41.511Z,101322.73
2018-12-26T23:56:10.729Z,101327.91
2018-12-26T23:58:39.921Z,101326.92
